Time;durP1;ratioP1;P1;durP2;ratioP2;P2;SDS_P1;SDS_P2;PMS_P1;PMS_P2;Temp;Humidity;BMP_temperature;BMP_pressure;BME280_temperature;BME280_humidity;BME280_pressure;Samples;Min_cycle;Max_cycle;Signal;HPM_P1;HPM_P2
2024/03/08 00:01:32;;;;;;;204.55;52.65;;;;;;;1.45;100.00;97254.50;5049305;28;20471;-81
2024/03/08 00:03:58;;;;;;;158.90;46.22;;;;;;;1.47;100.00;97251.69;5048431;28;20475;-80
2024/03/08 00:06:24;;;;;;;175.02;50.67;;;;;;;1.41;100.00;97249.88;5049557;28;20918;-82
2024/03/08 00:08:51;;;;;;;196.07;53.07;;;;;;;1.35;100.00;97248.88;5052084;28;20411;-80
2024/03/08 00:11:17;;;;;;;173.75;48.28;;;;;;;1.28;100.00;97252.44;5052534;28;20433;-82
2024/03/08 00:13:44;;;;;;;169.45;46.75;;;;;;;1.20;100.00;97247.41;5054362;28;20395;-81
2024/03/08 00:16:11;;;;;;;211.88;55.50;;;;;;;1.14;100.00;97244.56;5051074;28;20399;-82
2024/03/08 00:18:38;;;;;;;244.02;61.38;;;;;;;1.10;100.00;97247.75;5047484;28;20392;-81
2024/03/08 00:21:04;;;;;;;186.60;51.17;;;;;;;1.07;100.00;97245.53;5048826;28;20399;-83
2024/03/08 00:23:31;;;;;;;164.27;45.58;;;;;;;1.02;100.00;97240.91;5049494;28;20785;-81
2024/03/08 00:25:57;;;;;;;175.82;48.47;;;;;;;0.95;100.00;97245.28;5047669;28;20403;-81
2024/03/08 00:28:25;;;;;;;195.67;52.23;;;;;;;0.88;100.00;97243.66;5048351;28;20418;-81
2024/03/08 00:30:52;;;;;;;199.48;52.45;;;;;;;0.87;100.00;97237.63;5041824;28;20497;-80
2024/03/08 00:33:18;;;;;;;241.13;60.88;;;;;;;0.81;100.00;97235.81;5045959;28;20470;-79
2024/03/08 00:35:44;;;;;;;182.32;50.13;;;;;;;0.74;100.00;97237.56;5040613;28;20483;-82
2024/03/08 00:38:11;;;;;;;203.20;52.40;;;;;;;0.68;100.00;97236.50;5040807;28;20715;-82
2024/03/08 00:40:37;;;;;;;208.50;55.38;;;;;;;0.65;100.00;97230.91;5040457;28;20414;-81
2024/03/08 00:43:04;;;;;;;210.73;56.85;;;;;;;0.62;100.00;97231.28;5040540;28;20422;-82
2024/03/08 00:45:30;;;;;;;189.10;51.50;;;;;;;0.57;100.00;97224.06;5039925;28;20428;-81
2024/03/08 00:47:58;;;;;;;185.18;47.10;;;;;;;0.50;100.00;97230.22;5040127;28;20542;-81
2024/03/08 00:50:24;;;;;;;207.35;52.30;;;;;;;0.46;100.00;97221.97;5040753;28;20427;-82
2024/03/08 00:52:50;;;;;;;211.32;57.92;;;;;;;0.43;100.00;97213.75;5039531;28;20734;-81
2024/03/08 00:55:17;;;;;;;162.55;45.85;;;;;;;0.39;100.00;97213.31;5040510;28;20407;-80
2024/03/08 00:57:43;;;;;;;232.65;59.92;;;;;;;0.38;100.00;97211.69;5040722;28;20817;-81
2024/03/08 01:00:12;;;;;;;232.02;57.47;;;;;;;0.32;100.00;97215.88;5041266;28;20915;-80
2024/03/08 01:02:38;;;;;;;201.53;51.77;;;;;;;0.26;100.00;97210.63;5048262;28;20424;-81
2024/03/08 01:05:09;;;;;;;224.30;58.65;;;;;;;0.33;100.00;97214.88;5040551;28;20490;-80
2024/03/08 01:07:35;;;;;;;240.32;60.45;;;;;;;0.23;100.00;97211.00;5039515;28;20486;-80
2024/03/08 01:10:01;;;;;;;238.48;61.47;;;;;;;0.35;100.00;97205.09;5040217;28;20403;-82
2024/03/08 01:12:28;;;;;;;223.80;56.72;;;;;;;0.25;100.00;97209.00;5039987;28;20399;-80
2024/03/08 01:14:54;;;;;;;225.48;57.45;;;;;;;0.22;100.00;97206.81;5039149;28;20445;-80
2024/03/08 01:17:20;;;;;;;242.07;62.50;;;;;;;0.19;100.00;97204.56;5039345;28;20459;-79
2024/03/08 01:19:46;;;;;;;211.48;55.97;;;;;;;0.21;100.00;97206.00;5040021;28;20403;-80
2024/03/08 01:22:14;;;;;;;196.10;56.38;;;;;;;0.11;100.00;97197.72;5040035;28;20438;-79
2024/03/08 01:24:40;;;;;;;226.90;58.85;;;;;;;0.07;100.00;97203.50;5039492;28;20407;-80
2024/03/08 01:27:07;;;;;;;209.77;56.92;;;;;;;0.03;100.00;97190.06;5040005;28;20399;-80
2024/03/08 01:29:33;;;;;;;236.65;60.22;;;;;;;-0.03;100.00;97188.22;5039640;28;20399;-83
2024/03/08 01:32:01;;;;;;;226.57;59.97;;;;;;;0.02;100.00;97187.63;5039712;28;20399;-83
2024/03/08 01:34:28;;;;;;;188.65;53.83;;;;;;;-0.07;100.00;97186.97;5040201;28;20399;-82
2024/03/08 01:36:57;;;;;;;219.43;58.15;;;;;;;-0.16;100.00;97185.50;5039223;28;20395;-81
2024/03/08 01:39:25;;;;;;;221.35;60.63;;;;;;;-0.15;100.00;97174.91;5040400;28;20399;-82
2024/03/08 01:41:51;;;;;;;231.10;62.97;;;;;;;-0.08;100.00;97170.56;5039363;28;20395;-81
2024/03/08 01:44:17;;;;;;;230.57;62.25;;;;;;;-0.18;100.00;97172.69;5038702;28;20756;-83
2024/03/08 01:46:45;;;;;;;159.32;49.90;;;;;;;-0.23;100.00;97166.47;5039671;28;20392;-81
2024/03/08 01:49:12;;;;;;;192.75;53.65;;;;;;;-0.27;100.00;97160.81;5040109;28;20717;-81
2024/03/08 01:51:40;;;;;;;158.45;48.40;;;;;;;-0.30;100.00;97155.97;5039169;28;20494;-82
2024/03/08 01:54:09;;;;;;;161.98;45.50;;;;;;;-0.35;100.00;97145.34;5039363;28;20395;-81
2024/03/08 01:56:38;;;;;;;170.67;47.50;;;;;;;-0.38;100.00;97144.94;5039457;28;20399;-81
2024/03/08 01:59:07;;;;;;;243.48;64.88;;;;;;;-0.42;100.00;97142.69;5045836;28;20403;-82
2024/03/08 02:01:34;;;;;;;217.80;62.38;;;;;;;-0.43;100.00;97142.88;5038962;28;20395;-81
2024/03/08 02:04:00;;;;;;;191.77;52.23;;;;;;;-0.49;100.00;97144.44;5038863;28;20527;-82
2024/03/08 02:06:26;;;;;;;213.57;56.25;;;;;;;-0.51;100.00;97133.41;5038513;28;20868;-82
2024/03/08 02:08:53;;;;;;;236.00;66.05;;;;;;;-0.47;100.00;97133.84;5038215;28;20391;-82
2024/03/08 02:11:20;;;;;;;196.18;52.33;;;;;;;-0.51;100.00;97130.81;5040422;28;20820;-82
2024/03/08 02:13:48;;;;;;;193.45;51.35;;;;;;;-0.57;100.00;97117.75;5038908;28;20396;-81
2024/03/08 02:16:21;;;;;;;171.82;52.88;;;;;;;-0.55;100.00;97120.97;5040805;28;20400;-83
2024/03/08 02:18:47;;;;;;;195.32;50.80;;;;;;;-0.58;100.00;97113.53;5039551;28;20498;-82
2024/03/08 02:21:20;;;;;;;215.38;58.95;;;;;;;-0.53;100.00;97117.22;5039969;28;20403;-81
2024/03/08 02:23:47;;;;;;;213.48;59.83;;;;;;;-0.63;100.00;97108.91;5054254;28;20425;-81
2024/03/08 02:26:13;;;;;;;178.48;47.55;;;;;;;-0.61;100.00;97108.75;5051774;28;20463;-83
2024/03/08 02:28:42;;;;;;;209.98;57.15;;;;;;;-0.64;100.00;97109.09;5042793;28;20433;-82
2024/03/08 02:31:09;;;;;;;230.18;66.20;;;;;;;-0.72;100.00;97110.03;5041789;28;20479;-83
2024/03/08 02:33:35;;;;;;;196.40;54.42;;;;;;;-0.69;100.00;97103.66;5041203;28;20402;-81
2024/03/08 02:36:01;;;;;;;185.95;53.72;;;;;;;-0.73;100.00;97098.03;5038305;28;20402;-80
2024/03/08 02:38:29;;;;;;;226.55;57.38;;;;;;;-0.68;100.00;97100.88;5038448;28;20911;-82
2024/03/08 02:40:55;;;;;;;237.38;62.30;;;;;;;-0.67;100.00;97093.88;5038626;28;20402;-80
2024/03/08 02:43:22;;;;;;;239.93;64.18;;;;;;;-0.76;100.00;97098.41;5038008;28;20764;-81
2024/03/08 02:45:48;;;;;;;227.48;52.75;;;;;;;-0.80;100.00;97094.56;5039627;28;20401;-80
2024/03/08 02:48:18;;;;;;;188.73;53.03;;;;;;;-0.81;100.00;97091.16;5038846;28;20399;-80
2024/03/08 02:50:44;;;;;;;228.40;61.20;;;;;;;-0.84;100.00;97090.75;5040000;28;20459;-81
2024/03/08 02:53:11;;;;;;;212.82;56.83;;;;;;;-0.81;100.00;97082.56;5039564;28;20407;-82
2024/03/08 02:55:40;;;;;;;211.10;60.42;;;;;;;-0.81;100.00;97092.97;5038439;28;20407;-79
2024/03/08 02:58:09;;;;;;;222.65;55.00;;;;;;;-0.87;100.00;97091.91;5038553;28;20402;-80
2024/03/08 03:00:35;;;;;;;246.00;66.60;;;;;;;-0.89;100.00;97088.69;5036598;28;20402;-81
2024/03/08 03:03:02;;;;;;;234.13;62.00;;;;;;;-0.89;100.00;97078.31;5038036;28;20545;-82
2024/03/08 03:05:32;;;;;;;238.75;60.53;;;;;;;-0.92;100.00;97080.47;5043879;28;20386;-80
2024/03/08 03:07:58;;;;;;;242.90;67.13;;;;;;;-0.89;100.00;97070.50;5038214;28;20407;-82
2024/03/08 03:10:25;;;;;;;215.55;54.90;;;;;;;-0.93;100.00;97074.47;5040854;28;20422;-82
2024/03/08 03:12:53;;;;;;;249.98;67.50;;;;;;;-0.94;100.00;97066.88;5037965;28;20740;-81
2024/03/08 03:15:19;;;;;;;242.20;60.15;;;;;;;-0.93;100.00;97076.28;5039087;28;20880;-80
2024/03/08 03:17:47;;;;;;;253.75;64.25;;;;;;;-0.93;100.00;97064.09;5039054;28;20403;-81
2024/03/08 03:20:14;;;;;;;213.23;53.30;;;;;;;-0.97;100.00;97070.63;5038030;28;20395;-81
2024/03/08 03:22:40;;;;;;;229.40;59.67;;;;;;;-0.99;100.00;97070.03;5038165;28;20768;-82
2024/03/08 03:25:09;;;;;;;231.75;66.03;;;;;;;-0.90;100.00;97061.09;5038511;28;20911;-81
2024/03/08 03:27:36;;;;;;;192.57;53.13;;;;;;;-0.90;100.00;97065.50;5043362;28;20388;-80
2024/03/08 03:30:25;;;;;;;243.55;68.63;;;;;;;-0.95;100.00;97055.66;5041601;28;20399;-81
2024/03/08 03:32:52;;;;;;;243.82;61.55;;;;;;;-0.94;100.00;97052.09;5042099;28;20403;-82
2024/03/08 03:35:20;;;;;;;206.23;59.55;;;;;;;-0.92;100.00;97046.72;5041207;28;20886;-82
2024/03/08 03:38:01;;;;;;;223.35;55.13;;;;;;;-0.92;100.00;97044.13;5041970;28;20395;-82
2024/03/08 03:40:27;;;;;;;193.55;58.33;;;;;;;-0.89;100.00;97043.72;5052560;28;20487;-82
2024/03/08 03:42:53;;;;;;;219.43;55.33;;;;;;;-0.91;100.00;97043.94;5057949;28;20402;-80
2024/03/08 03:45:21;;;;;;;223.60;63.83;;;;;;;-0.89;100.00;97038.53;5045883;28;20403;-80
2024/03/08 03:47:47;;;;;;;234.40;57.25;;;;;;;-0.83;100.00;97043.00;5044369;28;20417;-81
2024/03/08 03:50:13;;;;;;;246.95;65.75;;;;;;;-0.74;100.00;97034.06;5041708;28;20407;-80
2024/03/08 03:52:39;;;;;;;237.25;61.72;;;;;;;-0.76;100.00;97032.66;5041147;28;20911;-80
2024/03/08 03:55:06;;;;;;;201.88;57.10;;;;;;;-0.73;100.00;97034.84;5041084;28;20399;-86
2024/03/08 03:57:33;;;;;;;234.33;58.03;;;;;;;-0.70;100.00;97037.09;5041399;28;20880;-81
2024/03/08 03:59:59;;;;;;;209.05;57.08;;;;;;;-0.68;100.00;97038.53;5046162;28;20395;-82
2024/03/08 04:02:26;;;;;;;226.40;60.83;;;;;;;-0.63;100.00;97037.94;5047683;28;20406;-82
2024/03/08 04:04:54;;;;;;;246.77;64.53;;;;;;;-0.55;100.00;97035.19;5047865;28;20424;-82
2024/03/08 04:07:20;;;;;;;211.75;61.80;;;;;;;-0.56;100.00;97033.59;5048427;28;20400;-83
2024/03/08 04:09:47;;;;;;;218.63;56.20;;;;;;;-0.59;100.00;97032.16;5047485;28;20406;-83
2024/03/08 04:12:15;;;;;;;222.85;60.08;;;;;;;-0.58;100.00;97032.97;5047536;28;20391;-81
2024/03/08 04:14:42;;;;;;;219.90;57.15;;;;;;;-0.64;100.00;97026.75;5047286;28;20399;-81
2024/03/08 04:17:08;;;;;;;245.73;65.03;;;;;;;-0.60;100.00;97029.78;5046193;28;20438;-82
2024/03/08 04:19:36;;;;;;;220.63;59.53;;;;;;;-0.61;100.00;97028.16;5046319;28;20455;-81
2024/03/08 04:22:02;;;;;;;222.40;59.50;;;;;;;-0.60;100.00;97022.75;5045938;28;20398;-82
2024/03/08 04:24:30;;;;;;;186.48;50.72;;;;;;;-0.60;100.00;97021.97;5045879;28;20458;-82
2024/03/08 04:26:57;;;;;;;230.80;61.53;;;;;;;-0.60;100.00;97014.97;5045106;28;20399;-82
2024/03/08 04:29:23;;;;;;;209.30;60.60;;;;;;;-0.65;100.00;97013.94;5044490;28;20903;-82
2024/03/08 04:31:53;;;;;;;226.77;63.55;;;;;;;-0.62;100.00;97013.56;5045557;28;20403;-82
2024/03/08 04:34:20;;;;;;;204.73;52.50;;;;;;;-0.67;100.00;97016.72;5045876;28;20434;-82
2024/03/08 04:36:47;;;;;;;237.88;60.60;;;;;;;-0.66;100.00;97015.72;5045166;28;20427;-82
2024/03/08 04:39:15;;;;;;;242.20;62.25;;;;;;;-0.68;100.00;97014.31;5047893;28;20467;-82
2024/03/08 04:41:43;;;;;;;257.23;67.63;;;;;;;-0.69;100.00;97013.53;5047532;28;20808;-82
2024/03/08 04:44:10;;;;;;;218.93;58.67;;;;;;;-0.66;100.00;97002.72;5049278;28;20426;-85
2024/03/08 04:46:36;;;;;;;234.65;61.35;;;;;;;-0.64;100.00;97012.94;5050121;28;20402;-82
2024/03/08 04:49:02;;;;;;;233.70;59.63;;;;;;;-0.66;100.00;97007.13;5048047;28;20483;-83
2024/03/08 04:51:29;;;;;;;209.27;54.72;;;;;;;-0.67;100.00;97003.72;5045793;28;20411;-83
2024/03/08 04:53:57;;;;;;;252.38;62.50;;;;;;;-0.69;100.00;97008.31;5044797;28;20388;-83
2024/03/08 04:56:23;;;;;;;234.83;60.73;;;;;;;-0.69;100.00;97003.13;5044412;28;20780;-83
2024/03/08 04:58:49;;;;;;;227.90;58.53;;;;;;;-0.70;100.00;96998.09;5048272;28;20399;-84
2024/03/08 05:01:15;;;;;;;232.52;61.72;;;;;;;-0.66;100.00;96996.72;5056611;28;20391;-81
2024/03/08 05:03:41;;;;;;;208.45;55.05;;;;;;;-0.71;100.00;96994.69;5052577;28;20419;-82
2024/03/08 05:06:08;;;;;;;249.32;63.45;;;;;;;-0.63;100.00;96994.56;5046125;28;20771;-82
2024/03/08 05:08:34;;;;;;;227.17;61.57;;;;;;;-0.65;100.00;96988.75;5040687;28;20465;-80
2024/03/08 05:11:03;;;;;;;268.60;66.15;;;;;;;-0.65;100.00;96990.53;5040576;28;20472;-81
2024/03/08 05:13:30;;;;;;;205.30;54.67;;;;;;;-0.73;100.00;96988.88;5040156;28;20407;-81
2024/03/08 05:15:58;;;;;;;205.15;55.60;;;;;;;-0.80;100.00;96983.66;5043263;28;20628;-82
2024/03/08 05:18:24;;;;;;;184.90;52.30;;;;;;;-0.77;100.00;96997.25;5041572;28;20458;-80
2024/03/08 05:20:51;;;;;;;203.35;55.75;;;;;;;-0.84;100.00;96992.03;5040042;28;20395;-82
2024/03/08 05:23:19;;;;;;;238.27;61.45;;;;;;;-0.87;100.00;96988.00;5039136;28;20403;-81
2024/03/08 05:25:46;;;;;;;192.63;49.92;;;;;;;-0.89;100.00;96987.38;5039204;28;20514;-82
2024/03/08 05:28:14;;;;;;;246.20;64.38;;;;;;;-0.80;100.00;96990.63;5037536;28;20417;-82
2024/03/08 05:30:40;;;;;;;227.57;58.97;;;;;;;-0.87;100.00;96987.19;5037907;28;20409;-79
2024/03/08 05:33:10;;;;;;;228.70;62.33;;;;;;;-0.87;100.00;96982.78;5044923;28;20405;-79
2024/03/08 05:35:36;;;;;;;223.05;59.97;;;;;;;-0.84;100.00;96982.44;5040079;28;20399;-80
2024/03/08 05:38:02;;;;;;;223.95;57.67;;;;;;;-0.86;100.00;96981.81;5040808;28;20475;-81
2024/03/08 05:40:31;;;;;;;245.07;65.63;;;;;;;-0.80;100.00;96983.66;5036947;28;20422;-79
2024/03/08 05:42:58;;;;;;;233.15;62.63;;;;;;;-0.85;100.00;96983.41;5037350;28;20399;-82
2024/03/08 05:45:26;;;;;;;268.52;73.05;;;;;;;-0.84;100.00;96981.63;5037901;28;20422;-81
2024/03/08 05:47:52;;;;;;;220.15;56.13;;;;;;;-0.80;100.00;96978.44;5036500;28;20493;-81
2024/03/08 05:50:19;;;;;;;264.90;67.45;;;;;;;-0.81;100.00;96976.84;5036892;28;20419;-82
2024/03/08 05:52:47;;;;;;;243.73;63.67;;;;;;;-0.87;100.00;96976.78;5034498;28;20460;-81
2024/03/08 05:55:14;;;;;;;233.10;65.70;;;;;;;-0.79;100.00;96974.06;5023829;28;20411;-81
2024/03/08 05:57:40;;;;;;;228.05;63.10;;;;;;;-0.80;100.00;96972.44;5019100;28;20392;-81
2024/03/08 06:00:07;;;;;;;239.35;61.92;;;;;;;-0.84;100.00;96985.03;5019005;28;20413;-82
2024/03/08 06:02:40;;;;;;;228.80;58.63;;;;;;;-0.91;100.00;96976.38;5021671;28;20408;-82
2024/03/08 06:05:08;;;;;;;230.03;61.43;;;;;;;-0.90;100.00;96975.38;5025556;28;20471;-84
2024/03/08 06:07:34;;;;;;;254.65;68.22;;;;;;;-0.92;100.00;96972.19;5042295;28;20455;-80
2024/03/08 06:10:00;;;;;;;209.70;62.00;;;;;;;-0.88;100.00;96973.38;5037421;28;20399;-81
2024/03/08 06:12:28;;;;;;;241.68;62.30;;;;;;;-0.90;100.00;96975.38;5036794;28;20807;-81
2024/03/08 06:14:55;;;;;;;240.68;63.65;;;;;;;-0.87;100.00;96972.41;5036783;28;20441;-81
2024/03/08 06:17:25;;;;;;;290.25;73.32;;;;;;;-0.84;100.00;96972.03;5035069;28;20410;-81
2024/03/08 06:19:54;;;;;;;219.97;59.23;;;;;;;-0.81;100.00;96974.25;5035751;28;20474;-82
2024/03/08 06:22:20;;;;;;;248.75;69.03;;;;;;;-0.69;100.00;96973.72;5036102;28;20479;-81
2024/03/08 06:24:47;;;;;;;248.43;63.03;;;;;;;-0.67;100.00;96974.31;5035808;28;20465;-80
2024/03/08 06:27:13;;;;;;;244.60;65.15;;;;;;;-0.69;100.00;96977.13;5035224;28;20401;-81
2024/03/08 06:29:40;;;;;;;234.50;62.67;;;;;;;-0.67;100.00;96984.72;5032207;28;21300;-80
2024/03/08 06:32:06;;;;;;;265.85;65.75;;;;;;;-0.61;100.00;96978.78;5035709;28;20418;-82
2024/03/08 06:34:34;;;;;;;250.00;61.63;;;;;;;-0.59;100.00;96980.19;5034916;28;20403;-80
2024/03/08 06:37:02;;;;;;;230.00;58.08;;;;;;;-0.51;100.00;96977.44;5036632;28;20395;-78
2024/03/08 06:39:31;;;;;;;271.38;64.47;;;;;;;-0.43;100.00;96979.88;5033582;28;20509;-82
2024/03/08 06:41:57;;;;;;;283.93;65.97;;;;;;;-0.34;100.00;96987.53;5029949;28;20407;-84
2024/03/08 06:44:24;;;;;;;260.95;63.88;;;;;;;-0.25;100.00;96974.19;5015710;28;20814;-82
2024/03/08 06:46:50;;;;;;;250.98;62.67;;;;;;;-0.19;100.00;96981.22;5015437;28;20397;-81
2024/03/08 06:49:16;;;;;;;258.23;61.97;;;;;;;-0.10;100.00;96981.84;5028136;28;20411;-82
2024/03/08 06:51:42;;;;;;;271.50;62.78;;;;;;;0.02;100.00;96974.28;5035121;28;20409;-78
2024/03/08 06:54:10;;;;;;;270.80;66.78;;;;;;;0.20;100.00;96977.16;5037423;28;20434;-79
2024/03/08 06:56:36;;;;;;;291.40;67.03;;;;;;;0.23;100.00;96980.16;5038371;28;20435;-80
2024/03/08 06:59:06;;;;;;;273.67;62.03;;;;;;;0.34;100.00;96982.19;5038205;28;20437;-80
2024/03/08 07:01:36;;;;;;;261.17;61.53;;;;;;;0.51;100.00;96985.25;5040215;28;20455;-79
2024/03/08 07:04:05;;;;;;;273.77;65.00;;;;;;;0.64;100.00;96971.44;5042984;28;20422;-78
2024/03/08 07:06:33;;;;;;;266.55;62.28;;;;;;;0.72;100.00;96972.06;5038359;28;20422;-80
2024/03/08 07:08:59;;;;;;;295.50;67.57;;;;;;;0.82;100.00;96979.50;5041753;28;20399;-81
2024/03/08 07:11:27;;;;;;;253.80;58.97;;;;;;;0.89;100.00;96977.69;5040838;28;20400;-80
2024/03/08 07:13:53;;;;;;;229.30;58.95;;;;;;;0.93;100.00;96970.25;5041320;28;20407;-82
2024/03/08 07:16:21;;;;;;;256.37;60.73;;;;;;;1.02;100.00;96977.69;5042917;28;20384;-82
2024/03/08 07:18:47;;;;;;;234.77;57.10;;;;;;;1.10;100.00;96971.47;5042173;28;20428;-81
2024/03/08 07:21:13;;;;;;;244.55;58.55;;;;;;;1.08;100.00;96963.84;5047550;28;20395;-79
2024/03/08 07:23:46;;;;;;;229.68;56.50;;;;;;;1.09;100.00;96973.28;5045659;28;20423;-79
2024/03/08 07:26:16;;;;;;;234.40;56.50;;;;;;;1.12;100.00;96961.66;5042184;28;20429;-81
2024/03/08 07:28:43;;;;;;;242.73;58.08;;;;;;;1.22;100.00;96971.66;5043209;28;20509;-81
2024/03/08 07:33:38;;;;;;;234.32;59.08;;;;;;;1.35;100.00;96969.06;5047129;28;20420;-80
2024/03/08 07:36:04;;;;;;;255.20;60.70;;;;;;;1.39;100.00;96965.81;5048351;28;20395;-81
2024/03/08 07:38:30;;;;;;;214.27;53.47;;;;;;;1.39;100.00;96971.03;5047191;28;20406;-82
2024/03/08 07:40:57;;;;;;;193.00;49.70;;;;;;;1.48;100.00;96969.81;5050918;28;20418;-82
2024/03/08 07:43:23;;;;;;;197.07;49.55;;;;;;;1.56;100.00;96960.97;5050150;28;20395;-82
2024/03/08 07:45:52;;;;;;;171.93;45.83;;;;;;;1.67;100.00;96954.31;5050406;28;20466;-81
2024/03/08 07:48:19;;;;;;;198.18;50.85;;;;;;;1.70;100.00;96953.91;5049309;28;20417;-81
2024/03/08 07:50:46;;;;;;;228.20;57.35;;;;;;;1.68;100.00;96961.13;5048811;28;20400;-81
2024/03/08 07:53:12;;;;;;;211.60;52.22;;;;;;;1.69;100.00;96958.34;5047231;28;20827;-80
2024/03/08 07:55:39;;;;;;;211.13;53.80;;;;;;;1.74;100.00;96949.88;5048294;28;21033;-82
2024/03/08 07:58:06;;;;;;;209.95;55.65;;;;;;;1.73;100.00;96948.31;5045966;28;20434;-83
2024/03/08 08:00:32;;;;;;;181.98;49.13;;;;;;;1.90;100.00;96944.19;5047129;28;20404;-79
2024/03/08 08:03:01;;;;;;;200.27;53.33;;;;;;;1.84;100.00;96948.44;5046720;28;20434;-80
2024/03/08 08:05:27;;;;;;;168.35;47.75;;;;;;;1.98;100.00;96951.00;5048219;28;20435;-82
2024/03/08 08:07:53;;;;;;;204.17;51.70;;;;;;;1.85;100.00;96944.84;5049398;28;20625;-83
2024/03/08 08:10:22;;;;;;;163.63;46.45;;;;;;;1.81;100.00;96943.63;5047707;28;21043;-82
2024/03/08 08:12:49;;;;;;;210.52;51.25;;;;;;;1.83;100.00;96952.06;5048057;28;20424;-82
2024/03/08 08:15:15;;;;;;;163.25;45.60;;;;;;;1.94;100.00;96941.00;5048999;28;20880;-82
2024/03/08 08:17:42;;;;;;;156.02;45.10;;;;;;;2.07;100.00;96934.91;5052765;28;20927;-82
2024/03/08 08:20:11;;;;;;;166.13;46.67;;;;;;;2.32;100.00;96945.44;5050076;28;20438;-83
2024/03/08 08:22:38;;;;;;;171.53;48.07;;;;;;;2.30;100.00;96943.03;5050012;28;20392;-82
2024/03/08 08:25:05;;;;;;;145.00;43.60;;;;;;;2.45;100.00;96940.13;5051497;28;20416;-83
2024/03/08 08:27:31;;;;;;;147.07;45.92;;;;;;;2.37;100.00;96937.75;5050811;28;20418;-83
2024/03/08 08:29:57;;;;;;;162.80;45.85;;;;;;;2.46;100.00;96927.88;5051026;28;20482;-83
2024/03/08 08:32:23;;;;;;;148.57;43.53;;;;;;;2.31;100.00;96930.75;5051839;28;20847;-83
2024/03/08 08:34:50;;;;;;;147.85;45.67;;;;;;;2.44;100.00;96928.06;5047484;28;20446;-83
2024/03/08 08:37:17;;;;;;;117.03;38.42;;;;;;;2.45;100.00;96926.25;5047110;28;20514;-82
2024/03/08 08:39:44;;;;;;;148.57;44.90;;;;;;;2.39;100.00;96920.06;5047861;28;20395;-82
2024/03/08 08:42:11;;;;;;;129.17;43.17;;;;;;;2.34;100.00;96925.91;5048091;28;20512;-81
2024/03/08 08:44:37;;;;;;;115.22;39.08;;;;;;;2.55;100.00;96921.38;5048876;28;20490;-82
2024/03/08 08:47:03;;;;;;;118.20;39.88;;;;;;;2.61;100.00;96920.53;5050552;28;20474;-83
2024/03/08 08:49:30;;;;;;;132.18;41.47;;;;;;;2.59;100.00;96923.34;5048755;28;20403;-78
2024/03/08 08:51:58;;;;;;;111.32;37.55;;;;;;;2.62;100.00;96920.31;5052828;28;20403;-79
2024/03/08 08:54:27;;;;;;;102.97;36.80;;;;;;;2.62;100.00;96912.47;5045187;28;20494;-81
2024/03/08 08:56:53;;;;;;;115.43;40.87;;;;;;;2.78;100.00;96926.84;5041952;28;20399;-81
2024/03/08 08:59:19;;;;;;;112.28;40.17;;;;;;;2.85;100.00;96913.72;5041432;28;20403;-82
2024/03/08 09:01:47;;;;;;;113.15;39.83;;;;;;;2.73;100.00;96921.44;5041736;28;21034;-80
2024/03/08 09:04:13;;;;;;;91.47;35.00;;;;;;;2.76;100.00;96920.22;5042740;28;20477;-80
2024/03/08 09:06:43;;;;;;;96.67;35.50;;;;;;;2.80;100.00;96918.75;5043072;28;20398;-82
2024/03/08 09:09:10;;;;;;;104.10;36.92;;;;;;;2.93;100.00;96914.22;5049362;28;20403;-79
2024/03/08 09:11:41;;;;;;;97.23;36.03;;;;;;;3.05;100.00;96914.34;5042777;28;20388;-79
2024/03/08 09:14:07;;;;;;;91.28;34.97;;;;;;;3.07;100.00;96912.31;5042050;28;20481;-81
2024/03/08 09:16:33;;;;;;;100.03;37.65;;;;;;;2.99;100.00;96921.22;5042666;28;20417;-79
2024/03/08 09:18:59;;;;;;;81.50;31.35;;;;;;;3.13;100.00;96913.28;5040572;28;20399;-80
2024/03/08 09:21:27;;;;;;;84.13;32.83;;;;;;;2.99;100.00;96909.97;5041726;28;20403;-82
2024/03/08 09:23:53;;;;;;;89.70;35.53;;;;;;;3.18;100.00;96900.34;5043326;28;20415;-82
2024/03/08 09:26:19;;;;;;;75.63;31.30;;;;;;;3.23;100.00;96898.69;5043340;28;20465;-81
2024/03/08 09:28:47;;;;;;;72.13;29.43;;;;;;;3.36;100.00;96900.38;5048337;28;20410;-81
2024/03/08 09:31:13;;;;;;;80.20;33.83;;;;;;;3.42;100.00;96905.53;5045054;28;20415;-80
2024/03/08 09:33:39;;;;;;;75.85;32.80;;;;;;;3.40;100.00;96902.31;5039751;28;20502;-79
2024/03/08 09:36:07;;;;;;;80.82;32.95;;;;;;;3.37;100.00;96891.50;5041178;28;20460;-80
2024/03/08 09:38:36;;;;;;;78.10;33.28;;;;;;;3.31;100.00;96894.97;5041056;28;20399;-81
2024/03/08 09:41:03;;;;;;;61.40;28.60;;;;;;;3.51;100.00;96890.34;5043847;28;20407;-82
2024/03/08 09:43:30;;;;;;;57.50;26.25;;;;;;;3.64;100.00;96895.41;5026473;28;20404;-82
2024/03/08 09:45:58;;;;;;;67.25;30.08;;;;;;;3.45;100.00;96892.03;5030516;28;20410;-82
2024/03/08 09:48:26;;;;;;;63.25;28.52;;;;;;;3.57;100.00;96896.50;5041555;28;20399;-82
2024/03/08 09:50:53;;;;;;;55.13;25.75;;;;;;;3.61;100.00;96887.22;5040413;28;20733;-82
2024/03/08 09:53:22;;;;;;;57.60;26.83;;;;;;;3.67;100.00;96889.75;5040471;28;21101;-81
2024/03/08 09:55:49;;;;;;;54.40;27.08;;;;;;;3.71;100.00;96880.44;5040092;28;20404;-81
2024/03/08 09:58:21;;;;;;;62.33;28.08;;;;;;;3.66;100.00;96882.13;5036290;28;20745;-83
2024/03/08 10:00:47;;;;;;;67.28;29.10;;;;;;;3.76;100.00;96877.19;5045749;28;20419;-80
2024/03/08 10:03:15;;;;;;;56.85;26.58;;;;;;;3.80;100.00;96876.50;5046253;28;20403;-81
2024/03/08 10:05:42;;;;;;;59.55;28.83;;;;;;;3.53;100.00;96880.47;5045121;28;20418;-81
2024/03/08 10:08:09;;;;;;;50.95;24.83;;;;;;;3.78;100.00;96875.91;5048193;28;20490;-82
2024/03/08 10:10:35;;;;;;;49.33;23.38;;;;;;;4.01;100.00;96872.59;5047369;28;20422;-81
2024/03/08 10:13:02;;;;;;;47.75;23.42;;;;;;;4.24;100.00;96870.06;5048670;28;20415;-81
2024/03/08 10:15:32;;;;;;;52.30;26.30;;;;;;;4.16;100.00;96864.34;5051166;28;20433;-82
2024/03/08 10:17:59;;;;;;;50.00;24.13;;;;;;;4.31;100.00;96864.75;5050226;28;20402;-81
2024/03/08 10:20:26;;;;;;;53.40;24.27;;;;;;;4.47;100.00;96869.34;5050640;28;20391;-81
2024/03/08 10:22:53;;;;;;;50.10;25.40;;;;;;;4.33;100.00;96864.53;5048835;28;20417;-81
2024/03/08 10:25:19;;;;;;;42.60;22.48;;;;;;;4.47;100.00;96861.47;5046486;28;20429;-83
2024/03/08 10:27:46;;;;;;;45.30;23.02;;;;;;;4.61;100.00;96856.81;5044658;28;20410;-81
2024/03/08 10:30:16;;;;;;;45.83;24.23;;;;;;;4.57;100.00;96858.31;5043505;28;20439;-81
2024/03/08 10:32:42;;;;;;;44.92;22.75;;;;;;;4.59;100.00;96864.91;5044060;28;20407;-82
2024/03/08 10:35:08;;;;;;;43.90;22.85;;;;;;;4.70;100.00;96858.09;5045304;28;20399;-81
2024/03/08 10:37:43;;;;;;;46.05;24.35;;;;;;;4.76;100.00;96854.56;5048424;28;20403;-83
2024/03/08 10:40:15;;;;;;;48.83;23.27;;;;;;;4.87;100.00;96843.28;5049157;28;20402;-84
2024/03/08 10:42:51;;;;;;;44.40;24.08;;;;;;;5.14;100.00;96846.25;5049730;28;20414;-81
2024/03/08 10:45:30;;;;;;;40.70;22.35;;;;;;;5.23;100.00;96839.63;5045541;28;20486;-83
2024/03/08 10:48:06;;;;;;;46.53;23.73;;;;;;;5.04;100.00;96828.44;5051468;28;20448;-84
2024/03/08 10:50:34;;;;;;;46.38;22.27;;;;;;;5.08;100.00;96839.28;5051637;28;20396;-84
2024/03/08 10:53:06;;;;;;;40.25;21.67;;;;;;;5.17;100.00;96837.94;5053517;28;20402;-82
2024/03/08 10:55:36;;;;;;;41.75;22.55;;;;;;;5.13;100.00;96841.22;5051478;28;20438;-85
2024/03/08 10:58:03;;;;;;;44.13;23.67;;;;;;;5.24;100.00;96835.19;5054596;28;20437;-83
2024/03/08 11:00:31;;;;;;;37.20;20.27;;;;;;;5.39;100.00;96833.66;5043694;28;20459;-83
2024/03/08 11:02:57;;;;;;;35.78;19.52;;;;;;;5.70;100.00;96836.91;5041583;28;20395;-83
2024/03/08 11:05:38;;;;;;;34.95;19.20;;;;;;;5.91;100.00;96833.66;5042203;28;20498;-80
2024/03/08 11:08:18;;;;;;;37.60;18.75;;;;;;;6.25;100.00;96829.25;5042347;28;20387;-81
2024/03/08 11:10:51;;;;;;;35.38;20.50;;;;;;;6.27;100.00;96815.88;5043063;28;20844;-82